Ясная

СКИДКИ НА СМАРТФОНЫ!

Карта отелей и гостиниц, располагающихся рядом с аэропортом Ясная :

Ясная Белгородская область 50° 47' 18.6" N, 35° 48' 13.9212" E
Код аэродрома ИКАО
HCN4
Код аэродрома RU
ХЦН4
Координаты
N50.78850° E035.80387°
Превышение над уровнем моря
224
Основная полоса
13/31
Курс магнитный
130,7/310,7
Длина основной ВПП
92
Ширина основной ВПП
15
Покрытие основной ВПП
Твёрдое (цементобетон)
Освещение ВПП
Нет
Тип: 
Вертодром
Класс аэродрома: 
Принадлежность: 
АОН
Статус: 
Действующий
Сайт: 
E-mail аэродрома: 
Страна: 
Россия
Регион: 
Белгородская область
Город: 
Дополнительная информация: 
Оператор: ООО "Белгранкорм". Базируется один вертолет Robinson R-44 RA-04268.

Скидки на навигаторы!

Найти трансфер

С помощью этой формы Вы можете найти трансфер из аэропорта Ясная в город, аэропорт или вокзал:

Погода в аэропортах:

Авиационная погода в Череповце

Регион: 
Погода METAR: 
ULWC 071800Z 15004G09MPS 9999 DRSN NSC M09/M14 Q1020 R21/450149 NOSIG RMK QFE755/1007
Время наблюдения
2022-12-07T18:00:00Z
Температура C
-9.0
Точка росы
-14.0
Направление ветра
150
Скорость ветра (узлы)
8
Метео видимость
6.21
Облачность
CLR
Нижняя граница облачности (футы)
Явления погоды
DRSN
Условия полета
VFR
Аэропорт подробнее: 
CLR — нет облаков ниже 3000 м
DRSN – снежный позёмок;

Авиационная погода в Йоэнсуу

Регион: 
Погода METAR: 
EFJO 072050Z AUTO 10009KT 9999 -SN FEW009 BKN031 M05/M07 Q1006
Время наблюдения
2022-12-07T20:50:00Z
Температура C
-5.0
Точка росы
-7.0
Направление ветра
100
Скорость ветра (узлы)
9
Метео видимость
6.21
Облачность
FEW
BKN
Нижняя граница облачности (футы)
900
3100
Явления погоды
-SN
Условия полета
VFR
FEW – незначительная облачность; BKN – значительная (рассеянная, разорванная) облачность;
-SN – слабый снег;

Авиационная погода в Братске

Регион: 
Погода METAR: 
UIBB 072100Z 26005MPS 240V300 8000 -SHSN BKN020CB M14/M17 Q1022 R30/820350 NOSIG RMK QFE723/0964
Время наблюдения
2022-12-07T21:00:00Z
Температура C
-14.0
Точка росы
-17.0
Направление ветра
260
Скорость ветра (узлы)
10
Метео видимость
4.97
Облачность
BKN
Нижняя граница облачности (футы)
2000
Явления погоды
-SHSN
Условия полета
MVFR
Аэропорт подробнее: 
BKN – значительная (рассеянная, разорванная) облачность;
-SHSN - слабый ливневой снег;

Авиационная погода в Храброво

Регион: 
Погода METAR: 
UMKK 072100Z 22005MPS 9999 -SHSNRA SCT007 BKN019CB 01/01 Q0998 RESHRA RESHSN R24/690295 NOSIG RMK QBB210 QFE748/0997
Время наблюдения
2022-12-07T21:00:00Z
Температура C
1.0
Точка росы
1.0
Направление ветра
220
Скорость ветра (узлы)
10
Метео видимость
6.21
Облачность
SCT
BKN
Нижняя граница облачности (футы)
700
1900
Явления погоды
-SHSN -SHRA SHSN
Условия полета
MVFR
Аэропорт подробнее: 
SCT – разбросанная отдельная облачность; BKN – значительная (рассеянная, разорванная) облачность;
-SHRA - слабый ливневой дождь; -SHSN - слабый ливневой снег;